Terminal Aerodrome Forecast
Issued by NWS

Home | Current Version | Previous Version | Text Only | Print | Product List | Glossary On
Versions: 1 2 3 4 5 6 7 8 9 10 11 12 13
000
FTUS45 KREV 192233 AAA
TAFCXP
TAF AMD
KCXP 192233Z 1923/2018 18010G20KT 6SM -TSRA SCT080CB BKN140
     FM200000 24008KT P6SM VCSH BKN080 OVC140
     FM200400 VRB03KT P6SM FEW110=

USA.gov is the U.S. government's official web portal to all federal, state and local government web resources and services.